Time;durP1;ratioP1;P1;durP2;ratioP2;P2;SDS_P1;SDS_P2;PMS_P1;PMS_P2;Temp;Humidity;BMP_temperature;BMP_pressure;BME280_temperature;BME280_humidity;BME280_pressure;Samples;Min_cycle;Max_cycle;Signal;HPM_P1;HPM_P2
2023/01/12 00:02:13;;;;;;;18.70;3.67;;;;;;;;;;5165993;27;20033;-70
2023/01/12 00:04:38;;;;;;;21.58;3.55;;;;;;;;;;5164694;27;20059;-69
2023/01/12 00:07:12;;;;;;;16.73;3.20;;;;;;;;;;5165538;27;20034;-69
2023/01/12 00:09:38;;;;;;;15.70;3.10;;;;;;;;;;5168797;27;20034;-69
2023/01/12 00:12:06;;;;;;;15.65;3.40;;;;;;;;;;5178903;27;20054;-69
2023/01/12 00:14:35;;;;;;;16.10;2.85;;;;;;;;;;5178115;27;20086;-70
2023/01/12 00:17:01;;;;;;;16.02;3.00;;;;;;;;;;5165577;27;20031;-70
2023/01/12 00:19:26;;;;;;;13.35;2.85;;;;;;;;;;5164460;27;20041;-70
2023/01/12 00:22:12;;;;;;;21.08;3.13;;;;;;;;;;5165182;27;20452;-70
2023/01/12 00:24:40;;;;;;;18.48;3.10;;;;;;;;;;5164628;27;20057;-70
2023/01/12 00:27:10;;;;;;;21.80;3.35;;;;;;;;;;5165600;27;20027;-70
2023/01/12 00:29:36;;;;;;;;;;;;;;;;;;5164926;27;20030;-70
2023/01/12 00:32:03;;;;;;;20.35;3.72;;;;;;;;;;5164038;27;20434;-70
2023/01/12 00:34:28;;;;;;;13.95;2.85;;;;;;;;;;5164251;27;20020;-70
2023/01/12 00:36:54;;;;;;;19.15;3.15;;;;;;;;;;5163720;27;20224;-69
2023/01/12 00:39:20;;;;;;;13.93;2.72;;;;;;;;;;5164246;27;20256;-69
2023/01/12 00:47:14;;;;;;;17.60;3.03;;;;;;;;;;5164798;27;20037;-80
2023/01/12 00:49:41;;;;;;;17.55;2.85;;;;;;;;;;5164496;27;20034;-72
2023/01/12 00:52:09;;;;;;;16.05;2.97;;;;;;;;;;5164816;27;20030;-71
2023/01/12 00:54:35;;;;;;;13.27;3.00;;;;;;;;;;5164760;27;20033;-71
2023/01/12 00:57:01;;;;;;;16.50;2.88;;;;;;;;;;5164852;27;20031;-69
2023/01/12 00:59:27;;;;;;;18.45;2.90;;;;;;;;;;5164471;27;20031;-70
2023/01/12 01:01:52;;;;;;;18.15;4.25;;;;;;;;;;5164178;27;20046;-71
2023/01/12 01:04:18;;;;;;;13.88;3.17;;;;;;;;;;5164132;27;20027;-69
2023/01/12 01:06:43;;;;;;;14.05;2.65;;;;;;;;;;5164124;27;20042;-70
2023/01/12 01:09:09;;;;;;;16.05;3.08;;;;;;;;;;5164323;27;20086;-69
2023/01/12 01:11:35;;;;;;;16.20;3.25;;;;;;;;;;5164428;27;20011;-76
2023/01/12 01:14:01;;;;;;;18.42;2.90;;;;;;;;;;5164320;27;20033;-71
2023/01/12 01:16:27;;;;;;;13.90;2.88;;;;;;;;;;5164360;27;20018;-72
2023/01/12 01:18:52;;;;;;;17.63;2.60;;;;;;;;;;5164083;27;20124;-74
2023/01/12 01:21:18;;;;;;;17.70;3.10;;;;;;;;;;5163789;27;20029;-71
2023/01/12 01:23:44;;;;;;;16.30;2.80;;;;;;;;;;5162837;27;20030;-69
2023/01/12 01:26:18;;;;;;;13.82;2.80;;;;;;;;;;5163625;27;20121;-74
2023/01/12 01:28:43;;;;;;;15.57;3.15;;;;;;;;;;5161563;27;20029;-71
2023/01/12 01:31:13;;;;;;;12.57;3.10;;;;;;;;;;5163840;27;20018;-70
2023/01/12 01:33:39;;;;;;;17.45;2.92;;;;;;;;;;5163491;27;20335;-71
2023/01/12 01:36:05;;;;;;;19.13;3.10;;;;;;;;;;5163091;27;20022;-71
2023/01/12 01:38:31;;;;;;;17.95;2.88;;;;;;;;;;5163820;27;20142;-75
2023/01/12 01:40:57;;;;;;;18.30;3.10;;;;;;;;;;5162890;27;20026;-71
2023/01/12 01:43:24;;;;;;;15.90;2.60;;;;;;;;;;5163768;27;20089;-73
2023/01/12 01:45:57;;;;;;;18.42;2.72;;;;;;;;;;5163824;27;20035;-68
2023/01/12 01:48:25;;;;;;;17.35;2.65;;;;;;;;;;5163060;27;20038;-69
2023/01/12 01:50:58;;;;;;;15.90;3.35;;;;;;;;;;5162656;27;20033;-70
2023/01/12 01:53:27;;;;;;;12.27;2.38;;;;;;;;;;5168176;27;20369;-68
2023/01/12 01:56:02;;;;;;;17.30;2.60;;;;;;;;;;5172163;27;20026;-69
2023/01/12 01:58:37;;;;;;;19.13;2.95;;;;;;;;;;5169356;27;20044;-69
2023/01/12 02:01:03;;;;;;;15.57;2.55;;;;;;;;;;5163617;27;20031;-69
2023/01/12 02:03:30;;;;;;;12.98;2.65;;;;;;;;;;5163600;27;20022;-69
2023/01/12 02:05:56;;;;;;;19.05;2.90;;;;;;;;;;5163708;27;20085;-68
2023/01/12 02:08:38;;;;;;;12.52;2.65;;;;;;;;;;5163752;27;20026;-80
2023/01/12 02:16:19;;;;;;;19.45;3.40;;;;;;;;;;5163170;27;20034;-78
2023/01/12 02:17:11;;;;;;;14.00;2.38;;;;;;;;;;5125265;27;20102;-80
2023/01/12 02:19:51;;;;;;;16.20;2.70;;;;;;;;;;5163241;27;20079;-79
2023/01/12 02:22:38;;;;;;;15.88;2.90;;;;;;;;;;5163108;27;20099;-78
2023/01/12 02:25:37;;;;;;;13.32;2.63;;;;;;;;;;5163497;27;20086;-80
2023/01/12 02:28:21;;;;;;;16.27;3.00;;;;;;;;;;5163223;27;20027;-80
2023/01/12 02:31:05;;;;;;;13.43;2.90;;;;;;;;;;5163217;27;20034;-80
2023/01/12 02:33:36;;;;;;;15.68;2.58;;;;;;;;;;5163212;27;20026;-75
2023/01/12 02:36:14;;;;;;;16.48;2.75;;;;;;;;;;5163011;27;20027;-77
2023/01/12 02:38:59;;;;;;;17.02;2.60;;;;;;;;;;5164503;27;20117;-77
2023/01/12 02:44:57;;;;;;;14.60;2.72;;;;;;;;;;5167474;27;20341;-77
2023/01/12 02:47:36;;;;;;;14.23;2.97;;;;;;;;;;5121350;27;20326;-76
2023/01/12 02:50:08;;;;;;;12.70;2.88;;;;;;;;;;5166803;27;20030;-82
2023/01/12 02:52:33;;;;;;;13.07;2.80;;;;;;;;;;5167198;27;20035;-80
2023/01/12 02:55:01;;;;;;;17.52;3.13;;;;;;;;;;5167182;27;20038;-80
2023/01/12 02:57:29;;;;;;;13.80;2.80;;;;;;;;;;5167091;27;20050;-79
2023/01/12 02:59:57;;;;;;;19.05;2.85;;;;;;;;;;5166934;27;20123;-76
2023/01/12 03:02:26;;;;;;;15.85;2.92;;;;;;;;;;5166864;27;20035;-78
2023/01/12 03:04:52;;;;;;;16.90;2.65;;;;;;;;;;5166767;27;20082;-79
2023/01/12 03:07:36;;;;;;;14.55;2.90;;;;;;;;;;5166427;27;20026;-80
2023/01/12 03:10:38;;;;;;;16.95;2.50;;;;;;;;;;5166707;27;20046;-80
2023/01/12 03:13:08;;;;;;;13.55;2.38;;;;;;;;;;5166872;27;20038;-79
2023/01/12 03:15:38;;;;;;;12.75;2.60;;;;;;;;;;5166736;27;20107;-79
2023/01/12 03:18:39;;;;;;;15.18;2.60;;;;;;;;;;5166645;27;20077;-80
2023/01/12 03:21:09;;;;;;;15.57;2.67;;;;;;;;;;5134263;27;20069;-77
2023/01/12 03:23:42;;;;;;;14.07;2.88;;;;;;;;;;5166489;27;20023;-78
2023/01/12 03:26:10;;;;;;;11.70;2.45;;;;;;;;;;5166445;27;20030;-79
2023/01/12 03:28:40;;;;;;;11.80;2.88;;;;;;;;;;5165841;27;20090;-73
2023/01/12 03:31:09;;;;;;;10.85;2.50;;;;;;;;;;5166462;27;20090;-70
2023/01/12 03:33:36;;;;;;;13.45;3.13;;;;;;;;;;5166339;27;20040;-71
2023/01/12 03:36:10;;;;;;;11.48;2.40;;;;;;;;;;5166304;27;20030;-68
2023/01/12 03:38:54;;;;;;;11.07;2.53;;;;;;;;;;5166274;27;20061;-69
2023/01/12 03:41:32;;;;;;;11.38;2.35;;;;;;;;;;5165677;27;20086;-69
2023/01/12 03:44:02;;;;;;;11.15;2.30;;;;;;;;;;5165533;27;20334;-71
2023/01/12 03:46:38;;;;;;;13.13;2.53;;;;;;;;;;5165814;27;20106;-73
2023/01/12 03:49:28;;;;;;;13.18;2.25;;;;;;;;;;5165463;27;20031;-69
2023/01/12 03:51:56;;;;;;;11.88;2.40;;;;;;;;;;5164666;27;20311;-69
2023/01/12 03:54:24;;;;;;;13.65;2.72;;;;;;;;;;5164066;27;20067;-69
2023/01/12 03:56:51;;;;;;;17.23;2.75;;;;;;;;;;5165747;27;20089;-70
2023/01/12 03:59:16;;;;;;;14.15;2.67;;;;;;;;;;5165368;27;20026;-70
2023/01/12 04:01:42;;;;;;;11.52;2.45;;;;;;;;;;5165941;27;20057;-68
2023/01/12 04:04:07;;;;;;;12.95;2.10;;;;;;;;;;5174549;27;20030;-68
2023/01/12 04:06:33;;;;;;;9.13;1.67;;;;;;;;;;5173848;27;20334;-70
2023/01/12 04:08:58;;;;;;;18.65;2.67;;;;;;;;;;5165549;27;20118;-72
2023/01/12 04:14:07;;;;;;;9.15;1.90;;;;;;;;;;5165080;27;20206;-70
2023/01/12 04:16:32;;;;;;;11.27;2.20;;;;;;;;;;5164708;27;20026;-69
2023/01/12 04:18:58;;;;;;;10.85;2.33;;;;;;;;;;5165234;27;20029;-68
2023/01/12 04:24:07;;;;;;;13.27;2.70;;;;;;;;;;5165232;27;20095;-69
2023/01/12 04:26:32;;;;;;;14.15;2.00;;;;;;;;;;5165003;27;20044;-67
2023/01/12 04:28:58;;;;;;;14.05;2.28;;;;;;;;;;5165108;27;20064;-78
2023/01/12 04:31:23;;;;;;;10.73;1.98;;;;;;;;;;5165118;27;20113;-79
2023/01/12 04:33:49;;;;;;;9.35;2.25;;;;;;;;;;5167090;27;20031;-71
2023/01/12 04:36:14;;;;;;;10.15;2.30;;;;;;;;;;5164808;27;20049;-72
2023/01/12 04:38:40;;;;;;;12.93;2.25;;;;;;;;;;5164460;27;20054;-73
2023/01/12 04:41:08;;;;;;;8.68;2.17;;;;;;;;;;5164096;27;20071;-75
2023/01/12 04:43:35;;;;;;;11.65;1.85;;;;;;;;;;5165093;27;20034;-80
2023/01/12 04:46:05;;;;;;;10.88;2.15;;;;;;;;;;5164599;27;20034;-72
2023/01/12 04:48:30;;;;;;;11.13;1.90;;;;;;;;;;5163745;27;20105;-72
2023/01/12 04:50:58;;;;;;;10.70;1.85;;;;;;;;;;5164080;27;20023;-69
2023/01/12 04:53:23;;;;;;;7.50;1.75;;;;;;;;;;5163956;27;20078;-68
2023/01/12 04:55:49;;;;;;;12.82;1.98;;;;;;;;;;5164062;27;20264;-75
2023/01/12 04:58:14;;;;;;;10.07;1.90;;;;;;;;;;5164549;27;20026;-79
2023/01/12 05:00:40;;;;;;;10.50;1.90;;;;;;;;;;5164056;27;20034;-80
2023/01/12 05:03:05;;;;;;;14.52;2.22;;;;;;;;;;5164168;27;20023;-78
2023/01/12 05:05:32;;;;;;;7.05;1.63;;;;;;;;;;5163455;27;20060;-79
2023/01/12 05:10:50;;;;;;;10.27;1.88;;;;;;;;;;5163949;27;20029;-78
2023/01/12 05:13:15;;;;;;;5.78;1.63;;;;;;;;;;5163692;27;20038;-79
2023/01/12 05:15:40;;;;;;;7.55;1.80;;;;;;;;;;5163860;27;20010;-75
2023/01/12 05:18:06;;;;;;;10.27;2.10;;;;;;;;;;5163500;27;20302;-79
2023/01/12 05:20:31;;;;;;;12.90;2.08;;;;;;;;;;5161951;27;20094;-79
2023/01/12 05:22:56;;;;;;;10.07;2.72;;;;;;;;;;5163078;27;20019;-78
2023/01/12 05:25:22;;;;;;;10.38;1.73;;;;;;;;;;5163400;27;20025;-78
2023/01/12 05:27:47;;;;;;;8.98;1.70;;;;;;;;;;5164172;27;20030;-78
2023/01/12 05:30:13;;;;;;;7.20;1.80;;;;;;;;;;5163681;27;20033;-77
2023/01/12 05:32:44;;;;;;;12.43;2.35;;;;;;;;;;5163686;27;20086;-80
2023/01/12 05:35:10;;;;;;;18.63;2.53;;;;;;;;;;5164128;27;20023;-78
2023/01/12 05:37:35;;;;;;;10.07;2.00;;;;;;;;;;5163512;27;20075;-78
2023/01/12 05:40:00;;;;;;;13.60;2.47;;;;;;;;;;5163669;27;20029;-80
2023/01/12 05:45:10;;;;;;;10.30;2.42;;;;;;;;;;5162671;27;20045;-80
2023/01/12 05:47:36;;;;;;;8.60;1.83;;;;;;;;;;5163594;27;20046;-79
2023/01/12 05:50:03;;;;;;;7.50;1.77;;;;;;;;;;5163339;27;20015;-80
2023/01/12 05:52:28;;;;;;;10.27;2.40;;;;;;;;;;5162737;27;20094;-77
2023/01/12 05:54:53;;;;;;;7.63;2.03;;;;;;;;;;5163859;27;20022;-79
2023/01/12 05:57:19;;;;;;;11.38;2.30;;;;;;;;;;5163779;27;20054;-78
2023/01/12 05:59:44;;;;;;;8.13;2.30;;;;;;;;;;5163614;27;20015;-78
2023/01/12 06:02:12;;;;;;;8.25;2.15;;;;;;;;;;5163424;27;20377;-79
2023/01/12 06:04:38;;;;;;;10.25;2.47;;;;;;;;;;5163236;27;20053;-77
2023/01/12 06:07:04;;;;;;;12.38;2.20;;;;;;;;;;5163360;27;20031;-79
2023/01/12 06:09:29;;;;;;;15.45;2.45;;;;;;;;;;5163431;27;20130;-75
2023/01/12 06:14:38;;;;;;;11.77;2.35;;;;;;;;;;5166289;27;20033;-78
2023/01/12 06:17:04;;;;;;;9.85;2.28;;;;;;;;;;5167508;27;20050;-72
2023/01/12 06:19:29;;;;;;;9.10;3.00;;;;;;;;;;5167619;27;20022;-75
2023/01/12 06:21:58;;;;;;;10.73;2.33;;;;;;;;;;5167274;27;20018;-76
2023/01/12 06:24:27;;;;;;;14.30;2.80;;;;;;;;;;5167180;27;20025;-68
2023/01/12 06:26:53;;;;;;;11.10;2.38;;;;;;;;;;5166971;27;20086;-79
2023/01/12 06:29:19;;;;;;;9.65;2.05;;;;;;;;;;5167218;27;20022;-76
2023/01/12 06:31:45;;;;;;;10.38;2.17;;;;;;;;;;5167400;27;20057;-76
2023/01/12 06:34:11;;;;;;;10.25;2.00;;;;;;;;;;5167379;27;20247;-78
2023/01/12 06:36:37;;;;;;;12.40;2.65;;;;;;;;;;5166888;27;20015;-78
2023/01/12 06:39:03;;;;;;;11.38;2.45;;;;;;;;;;5166791;27;20057;-76
2023/01/12 06:44:12;;;;;;;11.43;2.53;;;;;;;;;;5166909;27;20034;-72
2023/01/12 06:46:37;;;;;;;7.78;2.33;;;;;;;;;;5166691;27;20047;-75
2023/01/12 06:49:03;;;;;;;11.63;2.63;;;;;;;;;;5166999;27;20053;-77
2023/01/12 06:51:28;;;;;;;16.05;2.38;;;;;;;;;;5166992;27;20030;-69
2023/01/12 06:53:54;;;;;;;13.18;2.65;;;;;;;;;;5166657;27;20167;-77
2023/01/12 06:56:20;;;;;;;9.95;2.70;;;;;;;;;;5166711;27;20218;-69
2023/01/12 06:58:45;;;;;;;12.48;2.58;;;;;;;;;;5166620;27;20054;-70
2023/01/12 07:01:12;;;;;;;10.40;2.65;;;;;;;;;;5166880;27;20071;-70
2023/01/12 07:03:38;;;;;;;9.00;2.65;;;;;;;;;;5165620;27;20082;-76
2023/01/12 07:06:03;;;;;;;10.65;2.95;;;;;;;;;;5166951;27;20026;-70
2023/01/12 07:08:30;;;;;;;11.52;2.90;;;;;;;;;;5165356;27;20063;-72
2023/01/12 07:11:02;;;;;;;7.45;2.67;;;;;;;;;;5166715;27;20019;-74
2023/01/12 07:13:28;;;;;;;15.23;4.07;;;;;;;;;;5165710;27;20212;-78
2023/01/12 07:15:54;;;;;;;11.93;3.72;;;;;;;;;;5166278;27;20034;-72
2023/01/12 07:18:19;;;;;;;9.43;3.60;;;;;;;;;;5165078;27;20094;-77
2023/01/12 07:20:44;;;;;;;14.15;4.38;;;;;;;;;;5166639;27;20054;-70
2023/01/12 07:23:10;;;;;;;15.05;4.20;;;;;;;;;;5165754;27;20022;-77
2023/01/12 07:25:35;;;;;;;13.73;3.35;;;;;;;;;;5164469;27;20256;-71
2023/01/12 07:28:00;;;;;;;10.10;3.30;;;;;;;;;;5165715;27;20030;-74
2023/01/12 07:30:26;;;;;;;15.00;3.50;;;;;;;;;;5166121;27;20048;-72
2023/01/12 07:32:52;;;;;;;11.55;3.30;;;;;;;;;;5165196;27;20090;-74
2023/01/12 07:35:17;;;;;;;8.40;2.58;;;;;;;;;;5166678;27;20023;-75
2023/01/12 07:37:52;;;;;;;15.85;3.60;;;;;;;;;;5165100;27;20026;-76
2023/01/12 07:40:18;;;;;;;12.15;3.40;;;;;;;;;;5167344;27;20096;-75
2023/01/12 07:42:43;;;;;;;11.90;3.53;;;;;;;;;;5171627;27;20143;-76
2023/01/12 07:45:09;;;;;;;10.02;3.20;;;;;;;;;;5167929;27;20118;-71
2023/01/12 07:47:34;;;;;;;10.63;3.42;;;;;;;;;;5166049;27;20046;-74
2023/01/12 07:50:00;;;;;;;10.98;3.25;;;;;;;;;;5168964;27;20302;-80
2023/01/12 07:52:25;;;;;;;23.30;5.88;;;;;;;;;;5166184;27;20039;-71
2023/01/12 07:54:51;;;;;;;16.73;4.68;;;;;;;;;;5166930;27;20037;-74
2023/01/12 07:57:17;;;;;;;21.05;5.50;;;;;;;;;;5172706;27;20018;-70
2023/01/12 07:59:42;;;;;;;15.43;4.70;;;;;;;;;;5171114;27;20023;-71
2023/01/12 08:02:15;;;;;;;12.05;3.67;;;;;;;;;;5156106;27;20094;-79
2023/01/12 08:04:42;;;;;;;14.35;4.07;;;;;;;;;;5164609;27;20029;-71
2023/01/12 08:07:07;;;;;;;15.82;5.15;;;;;;;;;;5158702;27;20427;-71
2023/01/12 08:09:33;;;;;;;19.77;9.35;;;;;;;;;;5153930;27;20543;-73
2023/01/12 08:11:58;;;;;;;14.90;7.15;;;;;;;;;;5160275;27;20018;-77
2023/01/12 08:14:32;;;;;;;17.48;7.28;;;;;;;;;;5154083;27;20026;-76
2023/01/12 08:17:00;;;;;;;21.95;8.00;;;;;;;;;;5152599;27;20027;-71
2023/01/12 08:19:35;;;;;;;18.15;8.00;;;;;;;;;;5153898;27;20035;-74
2023/01/12 08:22:04;;;;;;;33.72;18.05;;;;;;;;;;5157579;27;20026;-75
2023/01/12 08:24:35;;;;;;;34.70;15.23;;;;;;;;;;5152238;27;20113;-79
2023/01/12 08:27:04;;;;;;;24.77;10.43;;;;;;;;;;5153407;27;20029;-74
2023/01/12 08:29:40;;;;;;;24.85;10.02;;;;;;;;;;5153374;27;20030;-73
2023/01/12 08:32:07;;;;;;;31.25;10.88;;;;;;;;;;5153301;27;20050;-74
2023/01/12 08:34:35;;;;;;;26.48;10.95;;;;;;;;;;5154265;27;20054;-78
2023/01/12 08:37:06;;;;;;;31.02;11.20;;;;;;;;;;5153069;27;20481;-76
2023/01/12 08:39:34;;;;;;;32.20;13.48;;;;;;;;;;5153586;27;20700;-75
2023/01/12 08:42:00;;;;;;;33.53;12.93;;;;;;;;;;5153479;27;20033;-75
2023/01/12 08:44:30;;;;;;;29.67;10.75;;;;;;;;;;5153742;27;20478;-78
2023/01/12 08:46:56;;;;;;;26.20;10.63;;;;;;;;;;5153730;27;20042;-78
2023/01/12 08:49:24;;;;;;;25.60;8.20;;;;;;;;;;5153779;27;20030;-77
2023/01/12 08:51:50;;;;;;;21.05;7.85;;;;;;;;;;5153674;27;20064;-75
2023/01/12 08:54:17;;;;;;;20.77;7.80;;;;;;;;;;5151921;27;20649;-72
2023/01/12 08:56:42;;;;;;;18.33;6.10;;;;;;;;;;5151952;27;20470;-71
2023/01/12 08:59:08;;;;;;;14.40;5.03;;;;;;;;;;5159064;27;20023;-74
2023/01/12 09:01:35;;;;;;;11.82;5.15;;;;;;;;;;5152741;27;20043;-70
2023/01/12 09:04:01;;;;;;;16.02;5.15;;;;;;;;;;5152939;27;20018;-76
2023/01/12 09:06:28;;;;;;;15.15;4.97;;;;;;;;;;5153290;27;20026;-70
2023/01/12 09:08:56;;;;;;;11.07;4.65;;;;;;;;;;5151203;27;20039;-75
2023/01/12 09:11:22;;;;;;;12.90;4.60;;;;;;;;;;5151321;27;20109;-71
2023/01/12 09:13:48;;;;;;;14.80;4.60;;;;;;;;;;5153642;27;20057;-71
2023/01/12 09:16:16;;;;;;;19.02;6.30;;;;;;;;;;5152217;27;20511;-72
2023/01/12 09:18:42;;;;;;;20.85;6.32;;;;;;;;;;5153654;27;20101;-71
2023/01/12 09:21:09;;;;;;;19.42;7.70;;;;;;;;;;5152872;27;20106;-77
2023/01/12 09:23:36;;;;;;;16.25;5.60;;;;;;;;;;5152904;27;20046;-70
2023/01/12 09:26:06;;;;;;;23.88;5.85;;;;;;;;;;5153084;27;20026;-70
2023/01/12 09:28:33;;;;;;;18.90;6.47;;;;;;;;;;5152987;27;20163;-70
2023/01/12 09:31:07;;;;;;;14.63;5.70;;;;;;;;;;5152951;27;20026;-71
2023/01/12 09:33:34;;;;;;;18.77;6.28;;;;;;;;;;5151528;27;20023;-71
2023/01/12 09:36:08;;;;;;;19.80;6.32;;;;;;;;;;5152912;27;20027;-71
2023/01/12 09:38:35;;;;;;;16.77;5.50;;;;;;;;;;5153179;27;20027;-70
2023/01/12 09:41:08;;;;;;;19.85;5.30;;;;;;;;;;5153303;27;20470;-72
2023/01/12 09:49:11;;;;;;;17.73;5.15;;;;;;;;;;5152131;27;20105;-69
2023/01/12 09:51:47;;;;;;;19.42;5.13;;;;;;;;;;5154964;27;20022;-71
2023/01/12 09:54:12;;;;;;;16.60;5.60;;;;;;;;;;5156036;27;20031;-70
2023/01/12 09:56:51;;;;;;;13.48;5.43;;;;;;;;;;5154521;27;20133;-76
2023/01/12 09:59:40;;;;;;;15.88;5.78;;;;;;;;;;5153766;27;20030;-71
2023/01/12 10:02:12;;;;;;;15.55;4.82;;;;;;;;;;5153763;27;20042;-72
2023/01/12 10:04:38;;;;;;;18.73;5.03;;;;;;;;;;5153891;27;20249;-71
2023/01/12 10:07:04;;;;;;;15.13;4.45;;;;;;;;;;5163409;27;20035;-71
2023/01/12 10:09:30;;;;;;;18.33;4.00;;;;;;;;;;5163441;27;20461;-72
2023/01/12 10:12:18;;;;;;;12.55;3.83;;;;;;;;;;5163732;27;20306;-71
2023/01/12 10:15:17;;;;;;;14.93;3.60;;;;;;;;;;5161679;27;20068;-71
2023/01/12 10:17:50;;;;;;;13.50;3.10;;;;;;;;;;5152467;27;20019;-72
2023/01/12 10:20:39;;;;;;;9.25;3.20;;;;;;;;;;5151004;27;20015;-72
2023/01/12 10:23:07;;;;;;;12.30;3.63;;;;;;;;;;5151518;27;20093;-72
2023/01/12 10:25:49;;;;;;;11.88;3.17;;;;;;;;;;5153883;27;20034;-73
2023/01/12 10:28:24;;;;;;;7.97;2.85;;;;;;;;;;5150553;27;20022;-71
2023/01/12 10:30:51;;;;;;;8.90;3.00;;;;;;;;;;5152331;27;20062;-71
2023/01/12 10:33:31;;;;;;;9.27;3.10;;;;;;;;;;5151735;27;20431;-70
2023/01/12 10:35:59;;;;;;;11.60;3.28;;;;;;;;;;5152140;27;20023;-71
2023/01/12 10:38:33;;;;;;;8.32;3.05;;;;;;;;;;5151697;27;20565;-72
2023/01/12 10:41:19;;;;;;;8.98;3.00;;;;;;;;;;5153366;27;20247;-71
2023/01/12 10:44:05;;;;;;;10.60;3.22;;;;;;;;;;5151809;27;20466;-70
2023/01/12 10:46:32;;;;;;;8.13;3.08;;;;;;;;;;5151675;27;20042;-72
2023/01/12 10:49:20;;;;;;;7.68;2.85;;;;;;;;;;5151705;27;20022;-71
2023/01/12 10:51:53;;;;;;;10.00;3.03;;;;;;;;;;5151897;27;20048;-70
2023/01/12 10:54:25;;;;;;;11.40;2.60;;;;;;;;;;5151715;27;20077;-70
2023/01/12 10:56:59;;;;;;;11.13;2.47;;;;;;;;;;5131222;27;20019;-70
2023/01/12 10:59:38;;;;;;;11.60;2.50;;;;;;;;;;5131519;27;20457;-75
2023/01/12 11:02:07;;;;;;;8.80;2.80;;;;;;;;;;5140119;27;20319;-72
2023/01/12 11:04:41;;;;;;;10.85;2.63;;;;;;;;;;5138161;27;20024;-76
2023/01/12 11:07:14;;;;;;;10.70;2.60;;;;;;;;;;5133481;27;20031;-73
2023/01/12 11:09:42;;;;;;;9.15;2.47;;;;;;;;;;5154601;27;20490;-73
2023/01/12 11:12:26;;;;;;;10.25;2.40;;;;;;;;;;5155378;27;20053;-80
2023/01/12 11:15:01;;;;;;;11.30;2.90;;;;;;;;;;5155216;27;20030;-71
2023/01/12 11:17:51;;;;;;;13.00;2.80;;;;;;;;;;5155184;27;20027;-72
2023/01/12 11:21:01;;;;;;;8.82;2.50;;;;;;;;;;5155064;27;20090;-71
2023/01/12 11:23:32;;;;;;;11.40;2.60;;;;;;;;;;5152597;27;20026;-73
2023/01/12 11:26:03;;;;;;;8.93;2.60;;;;;;;;;;5154819;27;20175;-74
2023/01/12 11:28:46;;;;;;;10.13;2.42;;;;;;;;;;5155787;27;20110;-69
2023/01/12 11:31:27;;;;;;;8.80;2.63;;;;;;;;;;5155502;27;20031;-71
2023/01/12 11:34:01;;;;;;;15.55;2.67;;;;;;;;;;5159535;27;20023;-69
2023/01/12 11:36:31;;;;;;;9.00;2.20;;;;;;;;;;5162745;27;20040;-76
2023/01/12 11:39:11;;;;;;;7.20;2.28;;;;;;;;;;5154894;27;20477;-72
2023/01/12 11:43:47;;;;;;;9.75;2.33;;;;;;;;;;5161803;27;20066;-76
2023/01/12 11:44:35;;;;;;;7.85;2.40;;;;;;;;;;5139418;27;20035;-76
2023/01/12 11:47:07;;;;;;;6.65;2.35;;;;;;;;;;5148231;27;20042;-76
2023/01/12 11:49:46;;;;;;;7.53;2.63;;;;;;;;;;5165728;27;20038;-73
2023/01/12 11:52:15;;;;;;;11.38;2.75;;;;;;;;;;5161284;27;20026;-75
2023/01/12 11:54:40;;;;;;;7.82;2.70;;;;;;;;;;5158040;27;20072;-73
2023/01/12 11:57:11;;;;;;;6.63;2.45;;;;;;;;;;5169348;27;20030;-74
2023/01/12 12:00:14;;;;;;;6.68;2.40;;;;;;;;;;5170438;27;20031;-74
2023/01/12 12:02:51;;;;;;;8.50;2.95;;;;;;;;;;5155265;27;20101;-73
2023/01/12 12:05:25;;;;;;;11.93;3.13;;;;;;;;;;5154715;27;20019;-74
2023/01/12 12:08:01;;;;;;;10.20;3.40;;;;;;;;;;5154790;27;20023;-75
2023/01/12 12:11:00;;;;;;;9.57;3.22;;;;;;;;;;5154307;27;20019;-76
2023/01/12 12:14:07;;;;;;;8.65;2.70;;;;;;;;;;5139220;27;20035;-75
2023/01/12 12:16:57;;;;;;;10.38;2.58;;;;;;;;;;5154315;27;20029;-74
2023/01/12 12:19:47;;;;;;;12.25;2.60;;;;;;;;;;5154169;27;20054;-76
2023/01/12 12:22:32;;;;;;;7.72;2.60;;;;;;;;;;5154143;27;20029;-73
2023/01/12 12:25:06;;;;;;;14.32;2.58;;;;;;;;;;5157476;27;20026;-72
2023/01/12 12:27:59;;;;;;;10.20;2.45;;;;;;;;;;5155949;27;20030;-74
2023/01/12 12:30:43;;;;;;;8.20;2.10;;;;;;;;;;5154633;27;20079;-76
2023/01/12 12:33:45;;;;;;;10.20;2.42;;;;;;;;;;5153493;27;20062;-72
2023/01/12 12:36:17;;;;;;;10.50;2.28;;;;;;;;;;5142835;27;20038;-73
2023/01/12 12:38:42;;;;;;;6.63;2.08;;;;;;;;;;5154306;27;20015;-71
2023/01/12 12:48:00;;;;;;;9.40;2.10;;;;;;;;;;5153470;27;20131;-70
2023/01/12 12:50:31;;;;;;;7.43;1.80;;;;;;;;;;5154371;27;20397;-69
2023/01/12 12:53:13;;;;;;;;;;;;;;;;;;5154129;27;20055;-72
2023/01/12 12:55:40;;;;;;;8.98;2.08;;;;;;;;;;5153621;27;20464;-71
2023/01/12 12:58:27;;;;;;;10.73;2.10;;;;;;;;;;5153560;27;20099;-71
2023/01/12 13:00:55;;;;;;;9.85;2.03;;;;;;;;;;5151816;27;20451;-72
2023/01/12 13:03:35;;;;;;;14.50;1.80;;;;;;;;;;5152469;27;20014;-71
2023/01/12 13:06:35;;;;;;;10.95;2.00;;;;;;;;;;5153063;27;20090;-71
2023/01/12 13:09:11;;;;;;;11.52;2.05;;;;;;;;;;5153103;27;20516;-73
2023/01/12 13:11:52;;;;;;;7.13;1.80;;;;;;;;;;5153159;27;20019;-72
2023/01/12 13:14:31;;;;;;;10.65;1.70;;;;;;;;;;5152957;27;20098;-71
2023/01/12 13:16:59;;;;;;;10.95;2.08;;;;;;;;;;5152792;27;20442;-71
2023/01/12 13:19:35;;;;;;;8.38;1.35;;;;;;;;;;5152622;27;20087;-72
2023/01/12 13:22:31;;;;;;;9.90;1.90;;;;;;;;;;5132888;27;20114;-71
2023/01/12 13:25:26;;;;;;;13.48;2.03;;;;;;;;;;5131881;27;20071;-71
2023/01/12 13:27:55;;;;;;;12.23;1.80;;;;;;;;;;5116525;27;20042;-70
2023/01/12 13:30:23;;;;;;;8.10;1.40;;;;;;;;;;5131049;27;20099;-71
2023/01/12 13:33:14;;;;;;;11.00;1.75;;;;;;;;;;5132230;27;20031;-71
2023/01/12 13:35:43;;;;;;;10.02;2.17;;;;;;;;;;5131757;27;20102;-71
2023/01/12 13:38:20;;;;;;;9.45;1.70;;;;;;;;;;5131813;27;20034;-72
2023/01/12 13:40:46;;;;;;;15.10;1.70;;;;;;;;;;5131725;27;20042;-72
2023/01/12 13:43:26;;;;;;;8.80;1.45;;;;;;;;;;5131960;27;20023;-72
2023/01/12 13:45:56;;;;;;;10.30;1.85;;;;;;;;;;5131560;27;20108;-71
2023/01/12 13:48:23;;;;;;;14.98;1.85;;;;;;;;;;5131809;27;20529;-70
2023/01/12 13:50:59;;;;;;;13.75;1.67;;;;;;;;;;5131895;27;20027;-71
2023/01/12 13:53:28;;;;;;;11.90;1.83;;;;;;;;;;5130389;27;20394;-71
2023/01/12 13:56:01;;;;;;;9.85;2.00;;;;;;;;;;5131447;27;20381;-72
2023/01/12 13:58:36;;;;;;;11.57;1.73;;;;;;;;;;5131574;27;20146;-71
2023/01/12 14:01:02;;;;;;;11.05;1.95;;;;;;;;;;5131744;27;20031;-70
2023/01/12 14:04:01;;;;;;;12.05;1.75;;;;;;;;;;5131548;27;20409;-72
2023/01/12 14:06:54;;;;;;;12.77;2.00;;;;;;;;;;5131629;27;20060;-71
2023/01/12 14:09:22;;;;;;;9.98;2.10;;;;;;;;;;5131736;27;20027;-70
2023/01/12 14:12:17;;;;;;;10.90;2.30;;;;;;;;;;5131516;27;20479;-70
2023/01/12 14:18:11;;;;;;;11.32;2.88;;;;;;;;;;5131673;28;20053;-71
2023/01/12 14:20:46;;;;;;;10.73;2.25;;;;;;;;;;5131458;27;20052;-71
2023/01/12 14:23:22;;;;;;;17.05;2.13;;;;;;;;;;5135850;27;20031;-73
2023/01/12 14:26:08;;;;;;;21.15;2.70;;;;;;;;;;5146792;27;20034;-71
2023/01/12 14:28:35;;;;;;;13.85;2.10;;;;;;;;;;5120129;28;20481;-74
2023/01/12 14:31:02;;;;;;;10.65;1.95;;;;;;;;;;5136557;27;20026;-71
2023/01/12 14:33:30;;;;;;;10.30;2.30;;;;;;;;;;5151779;27;20023;-70
2023/01/12 14:36:06;;;;;;;9.45;2.20;;;;;;;;;;5155094;27;20042;-72
2023/01/12 14:38:33;;;;;;;10.20;1.88;;;;;;;;;;5156237;27;20033;-73
2023/01/12 14:41:05;;;;;;;10.93;2.17;;;;;;;;;;5138167;27;20053;-74
2023/01/12 14:46:26;;;;;;;13.10;2.25;;;;;;;;;;5134911;27;20070;-72
2023/01/12 14:49:16;;;;;;;12.45;2.28;;;;;;;;;;5134966;27;20468;-72
2023/01/12 14:51:52;;;;;;;10.65;2.42;;;;;;;;;;5127659;27;20684;-73
2023/01/12 14:54:19;;;;;;;9.43;2.40;;;;;;;;;;5137588;27;20027;-75
2023/01/12 14:56:55;;;;;;;11.25;2.40;;;;;;;;;;5135588;27;20036;-74
2023/01/12 14:59:23;;;;;;;11.23;2.00;;;;;;;;;;5134987;27;20027;-77
2023/01/12 15:01:50;;;;;;;11.68;1.80;;;;;;;;;;5133657;27;20408;-74
2023/01/12 15:04:25;;;;;;;8.73;1.38;;;;;;;;;;5134632;27;20058;-74
2023/01/12 15:07:04;;;;;;;9.05;1.73;;;;;;;;;;5137030;27;20049;-75
2023/01/12 15:09:35;;;;;;;10.30;1.80;;;;;;;;;;5136853;27;20031;-78
2023/01/12 15:12:29;;;;;;;11.10;1.63;;;;;;;;;;5137315;27;20122;-78
2023/01/12 15:25:34;;;;;;;8.77;1.70;;;;;;;;;;5143572;27;20023;-75
2023/01/12 15:26:25;;;;;;;12.52;1.80;;;;;;;;;;5134462;27;20153;-74
2023/01/12 15:28:51;;;;;;;11.40;1.38;;;;;;;;;;5136077;27;20061;-72
2023/01/12 15:31:35;;;;;;;9.98;1.70;;;;;;;;;;5157931;27;20046;-73
2023/01/12 15:34:01;;;;;;;10.32;1.67;;;;;;;;;;5155402;27;20011;-72
2023/01/12 15:36:26;;;;;;;10.30;1.83;;;;;;;;;;5157677;27;20059;-71
2023/01/12 15:38:52;;;;;;;13.27;1.83;;;;;;;;;;5156978;27;20027;-73
2023/01/12 15:42:14;;;;;;;5.97;1.38;;;;;;;;;;5157816;27;20163;-73
2023/01/12 15:44:13;;;;;;;13.10;1.90;;;;;;;;;;5161415;27;20358;-73
2023/01/12 15:46:39;;;;;;;9.07;1.50;;;;;;;;;;5146902;27;20498;-70
2023/01/12 15:49:05;;;;;;;8.00;1.70;;;;;;;;;;5134300;27;20055;-73
2023/01/12 15:51:31;;;;;;;11.40;1.88;;;;;;;;;;5134195;27;20023;-71
2023/01/12 15:53:56;;;;;;;9.00;1.67;;;;;;;;;;5134020;27;20027;-74
2023/01/12 15:56:22;;;;;;;9.10;1.73;;;;;;;;;;5133733;27;20052;-70